< < Back
Terminal Aerodrome Forecast


Current Version              Previous Versions:   1  2  3  4  5  6  7  8  9  

Terminal Aerodrome Forecast

863
FTUS44 KOHX 031530 AAB
TAFCSV
TAF AMD
KCSV 031530Z 0316/0412 29007KT P6SM FEW018 SCT026
     FM031700 31009KT P6SM OVC035
     FM040000 30004KT P6SM BKN040=

Latest METAR

519
SAUS70 KWBC 040000 RRH
MTRCSV
METAR KCSV 032353Z AUTO 32007KT 10SM BKN035 BKN046 OVC055 16/08 A2991
RMK AO2 SLP119 T01560078 10189 20156 55000


USA.gov is the U.S. government's official web portal to all federal, state and local government web resources and services.